.
WxDataArchive / Data Records for 2012-01-16
2012-01-15 January 2012 2012-01-17

Data Records for Monday, 16 January 2012

Time	Temp	Chill	HIndex	Humid	Dewpt	 Wind 	HiWind	WindDir	Rain 	Barom 
-----	----	-----	------	-----	-----	------	------	-------	-----	----- 
00:00	20.2	20.2	20.2	72	12.6	0	2	112	0.00	30.251 
00:05	20.2	20.2	20.2	72	12.6	0	1	112	0.00	30.251 
00:10	20.2	20.2	20.2	72	12.6	0	2	112	0.00	30.251 
00:15	20.2	20.2	20.2	73	13.0	0	1	112	0.00	30.239 
00:20	20.2	20.2	20.2	73	13.0	0	3	112	0.00	30.239 
00:25	20.2	20.2	20.2	73	13.0	0	2	112	0.00	30.239 
00:30	20.3	20.3	20.3	74	13.4	0	1	112	0.00	30.240 
00:35	20.3	20.3	20.3	74	13.4	0	1	112	0.00	30.240 
00:40	20.3	20.3	20.3	74	13.4	0	1	112	0.00	30.240 
00:45	20.2	20.2	20.2	74	13.3	0	1	112	0.00	30.236 
00:50	20.0	20.0	20.0	74	13.1	0	0	---	0.00	30.236 
00:55	19.9	19.9	19.9	75	13.3	0	1	112	0.00	30.236 
01:00	19.7	19.7	19.7	76	13.4	0	1	112	0.00	30.231 
01:05	19.9	19.9	19.9	77	13.9	0	1	112	0.00	30.231 
01:10	19.7	19.7	19.7	77	13.7	0	1	112	0.00	30.231 
01:15	19.9	19.9	19.9	77	13.9	0	1	112	0.00	30.222 
01:20	19.9	19.9	19.9	77	13.9	0	0	---	0.00	30.222 
01:25	19.9	19.9	19.9	78	14.2	0	1	112	0.00	30.222 
01:30	20.0	20.0	20.0	78	14.3	0	1	112	0.00	30.219 
01:35	20.0	20.0	20.0	78	14.3	0	1	112	0.00	30.219 
01:40	20.0	20.0	20.0	78	14.3	0	0	---	0.00	30.219 
01:45	19.9	19.9	19.9	78	14.2	0	1	112	0.00	30.213 
01:50	19.9	19.9	19.9	79	14.5	0	1	112	0.00	30.213 
01:55	20.0	20.0	20.0	79	14.6	0	1	112	0.00	30.213 
02:00	19.9	19.9	19.9	79	14.5	0	0	---	0.00	30.210 
02:05	19.9	19.9	19.9	79	14.5	0	1	112	0.00	30.210 
02:10	19.9	19.9	19.9	80	14.7	0	1	112	0.00	30.210 
02:15	19.9	19.9	19.9	80	14.7	0	1	112	0.00	30.202 
02:20	19.9	19.9	19.9	81	15.0	0	1	112	0.00	30.202 
02:25	19.9	19.9	19.9	81	15.0	0	1	112	0.00	30.202 
02:30	19.9	19.9	19.9	81	15.0	0	1	112	0.00	30.202 
02:35	20.0	20.0	20.0	81	15.1	0	2	112	0.00	30.202 
02:40	20.2	20.2	20.2	81	15.3	0	1	112	0.00	30.202 
02:45	20.0	20.0	20.0	81	15.1	0	1	112	0.00	30.199 
02:50	20.0	20.0	20.0	82	15.4	0	2	112	0.00	30.199 
02:55	20.2	20.2	20.2	82	15.6	0	1	112	0.00	30.199 
03:00	20.2	20.2	20.2	82	15.6	0	2	112	0.00	30.196 
03:05	20.0	20.0	20.0	82	15.4	0	1	112	0.00	30.196 
03:10	20.0	20.0	20.0	82	15.4	0	1	112	0.00	30.196 
03:15	19.9	19.9	19.9	82	15.3	0	0	---	0.00	30.185 
03:20	19.7	19.7	19.7	83	15.4	0	1	112	0.00	30.185 
03:25	19.7	19.7	19.7	83	15.4	0	2	112	0.00	30.185 
03:30	19.7	19.7	19.7	83	15.4	0	2	112	0.00	30.171 
03:35	19.7	19.7	19.7	84	15.7	0	2	112	0.00	30.171 
03:40	19.9	19.9	19.9	84	15.9	0	2	112	0.00	30.171 
03:45	19.9	19.9	19.9	84	15.9	0	2	112	0.00	30.159 
03:50	19.9	19.9	19.9	84	15.9	0	1	112	0.00	30.159 
03:55	19.7	19.7	19.7	84	15.7	0	1	112	0.00	30.159 
04:00	19.7	19.7	19.7	84	15.7	0	1	112	0.00	30.150 
04:05	19.5	19.5	19.5	84	15.5	0	1	112	0.00	30.150 
04:10	19.5	19.5	19.5	85	15.7	0	1	112	0.00	30.150 
04:15	19.5	19.5	19.5	85	15.7	0	1	112	0.00	30.138 
04:20	19.5	19.5	19.5	85	15.7	0	1	112	0.00	30.138 
04:25	19.5	19.5	19.5	85	15.7	0	1	112	0.00	30.138 
04:30	19.5	19.5	19.5	85	15.7	0	1	112	0.00	30.129 
04:35	19.4	19.4	19.4	85	15.6	0	1	112	0.00	30.129 
04:40	19.4	19.4	19.4	85	15.6	0	1	112	0.00	30.129 
04:45	19.4	19.4	19.4	85	15.6	0	1	112	0.00	30.122 
04:50	19.2	19.2	19.2	86	15.7	0	1	112	0.00	30.122 
04:55	19.2	19.2	19.2	86	15.7	0	1	112	0.00	30.122 
05:00	19.2	19.2	19.2	86	15.7	0	1	112	0.00	30.109 
05:05	19.1	19.1	19.1	86	15.6	0	0	---	0.00	30.109 
05:10	19.1	19.1	19.1	86	15.6	0	0	---	0.00	30.109 
05:15	18.9	18.9	18.9	86	15.4	0	1	112	0.00	30.105 
05:20	18.9	18.9	18.9	87	15.7	0	1	112	0.00	30.105 
05:25	18.9	18.9	18.9	87	15.7	0	0	---	0.00	30.105 
05:30	18.9	18.9	18.9	87	15.7	0	0	---	0.00	30.093 
05:35	18.9	18.9	18.9	87	15.7	0	0	---	0.00	30.093 
05:40	18.9	18.9	18.9	87	15.7	0	0	---	0.00	30.093 
05:45	18.8	18.8	18.8	87	15.6	0	0	---	0.00	30.086 
05:50	18.8	18.8	18.8	87	15.6	0	0	---	0.00	30.086 
05:55	18.8	18.8	18.8	88	15.8	0	0	---	0.00	30.086 
06:00	18.8	18.8	18.8	88	15.8	0	0	---	0.00	30.079 
06:05	18.9	18.9	18.9	88	15.9	0	0	---	0.00	30.079 
06:10	19.1	19.1	19.1	88	16.1	0	0	---	0.00	30.079 
06:15	19.2	19.2	19.2	88	16.2	0	0	---	0.00	30.076 
06:20	19.2	19.2	19.2	88	16.2	0	0	---	0.00	30.076 
06:25	19.2	19.2	19.2	88	16.2	0	0	---	0.00	30.076 
06:30	19.4	19.4	19.4	88	16.4	0	0	---	0.00	30.067 
06:35	19.7	19.7	19.7	89	17.0	0	0	---	0.00	30.067 
06:40	20.2	20.2	20.2	89	17.5	0	1	112	0.00	30.067 
06:45	21.3	21.3	21.3	90	18.8	0	1	112	0.00	30.060 
06:50	22.4	22.4	22.4	91	20.2	0	2	112	0.00	30.060 
06:55	23.6	23.6	23.6	90	21.1	0	1	112	0.00	30.060 
07:00	24.5	24.5	24.5	89	21.7	0	3	112	0.00	30.051 
07:05	25.3	25.3	25.3	87	22.0	0	2	112	0.00	30.051 
07:10	25.7	25.7	25.7	86	22.1	0	2	112	0.00	30.051 
07:15	26.3	26.3	26.3	84	22.1	0	2	112	0.00	30.048 
07:20	26.6	26.6	26.6	83	22.1	0	0	---	0.00	30.048 
07:25	26.7	26.7	26.7	83	22.2	0	1	112	0.00	30.048 
07:30	27.0	27.0	27.0	82	22.3	0	2	112	0.00	30.044 
07:35	27.3	27.3	27.3	81	22.3	0	2	112	0.00	30.044 
07:40	27.6	27.6	27.6	81	22.5	0	2	112	0.00	30.044 
07:45	27.9	27.9	27.9	81	22.8	0	2	112	0.00	30.038 
07:50	28.2	28.2	28.2	80	22.8	0	2	112	0.00	30.038 
07:55	28.7	28.7	28.7	79	23.0	0	1	112	0.00	30.038 
08:00	29.0	29.0	29.0	79	23.3	0	2	112	0.00	30.034 
08:05	29.3	29.3	29.3	79	23.6	0	3	112	0.00	30.034 
08:10	29.7	29.7	29.7	78	23.7	0	4	292	0.00	30.034 
08:15	30.0	30.0	30.0	78	24.0	0	1	248	0.00	30.024 
08:20	30.3	30.3	30.3	77	24.0	0	2	248	0.00	30.024 
08:25	30.6	30.6	30.6	77	24.3	0	2	248	0.00	30.024 
08:30	30.9	30.9	30.9	77	24.6	0	3	248	0.00	30.021 
08:35	31.3	31.3	31.3	76	24.6	0	3	248	0.00	30.021 
08:40	31.8	31.8	31.8	76	25.1	0	2	248	0.00	30.021 
08:45	32.1	32.1	32.1	75	25.1	1	3	248	0.00	30.021 
08:50	32.5	32.5	32.5	75	25.5	1	3	315	0.00	30.021 
08:55	32.8	32.8	32.8	74	25.4	1	2	225	0.00	30.021 
09:00	33.1	33.1	33.1	74	25.7	1	3	225	0.00	30.018 
09:05	33.4	33.4	33.4	73	25.7	1	5	248	0.00	30.018 
09:10	33.7	33.7	33.7	73	26.0	1	3	248	0.00	30.018 
09:15	34.0	34.0	34.0	73	26.3	1	4	248	0.00	30.018 
09:20	34.3	34.3	34.3	72	26.2	1	4	248	0.00	30.018 
09:25	34.7	34.7	34.7	72	26.6	1	5	248	0.00	30.018 
09:30	35.2	35.2	35.2	71	26.8	1	4	248	0.00	30.016 
09:35	35.6	35.6	35.6	71	27.1	1	6	248	0.00	30.016 
09:40	36.2	36.2	36.2	69	27.0	1	6	248	0.00	30.016 
09:45	36.8	36.8	36.8	69	27.6	1	3	248	0.00	30.007 
09:50	37.2	37.2	37.2	68	27.6	1	3	248	0.00	30.007 
09:55	37.6	37.6	37.6	67	27.7	2	5	248	0.00	30.007 
10:00	37.8	37.8	37.8	66	27.5	1	3	225	0.00	30.001 
10:05	38.0	38.0	38.0	66	27.7	2	5	225	0.00	30.001 
10:10	38.3	38.3	38.3	65	27.6	2	5	248	0.00	30.001 
10:15	38.6	38.6	38.6	65	27.9	1	7	248	0.00	29.998 
10:20	39.1	39.1	39.1	65	28.3	1	7	248	0.00	29.998 
10:25	39.3	39.3	39.3	64	28.2	1	4	248	0.00	29.998 
10:30	39.5	39.5	39.5	64	28.3	1	6	225	0.00	29.997 
10:35	39.6	39.6	39.6	64	28.4	1	7	248	0.00	29.997 
10:40	39.6	39.6	39.6	64	28.4	1	4	90	0.00	29.997 
10:45	39.9	39.9	39.9	64	28.7	1	4	248	0.00	29.998 
10:50	39.9	39.9	39.9	64	28.7	1	5	248	0.00	29.998 
10:55	40.1	40.1	40.1	64	28.9	2	6	225	0.00	29.998 
11:00	40.2	40.2	40.2	64	29.0	1	4	248	0.00	29.990 
11:05	40.3	40.3	40.3	64	29.1	2	5	270	0.00	29.990 
11:10	40.3	40.3	40.3	64	29.1	1	4	248	0.00	29.990 
11:15	40.5	40.5	40.5	64	29.3	1	2	248	0.00	29.985 
11:20	40.8	40.8	40.8	64	29.6	1	6	248	0.00	29.985 
11:25	40.9	40.9	40.9	64	29.7	2	5	270	0.00	29.985 
11:30	41.1	41.1	41.1	64	29.9	2	5	248	0.00	29.980 
11:35	41.2	41.2	41.2	64	30.0	1	4	248	0.00	29.980 
11:40	41.3	41.3	41.3	64	30.1	1	7	248	0.00	29.980 
11:45	41.5	41.5	41.5	64	30.2	1	5	315	0.00	29.970 
11:50	41.5	41.5	41.5	64	30.2	2	6	248	0.00	29.970 
11:55	41.6	41.6	41.6	64	30.3	1	3	248	0.00	29.970 
12:00	41.8	41.8	41.8	64	30.5	1	3	270	0.00	29.962 
12:05	41.8	41.8	41.8	64	30.5	1	4	248	0.00	29.962 
12:10	41.8	41.8	41.8	64	30.5	1	5	225	0.00	29.962 
12:15	41.9	41.9	41.9	64	30.6	1	6	248	0.00	29.947 
12:20	42.2	42.2	42.2	64	30.9	2	6	248	0.00	29.947 
12:25	42.5	42.5	42.5	64	31.2	1	4	248	0.00	29.947 
12:30	42.8	42.8	42.8	64	31.5	1	4	225	0.00	29.934 
12:35	42.9	42.9	42.9	64	31.6	2	7	248	0.00	29.934 
12:40	42.9	42.9	42.9	63	31.2	2	5	225	0.00	29.934 
12:45	42.8	42.8	42.8	64	31.5	2	5	248	0.00	29.930 
12:50	42.6	42.6	42.6	65	31.7	1	3	248	0.00	29.930 
12:55	42.5	42.5	42.5	65	31.6	2	4	248	0.00	29.930 
13:00	42.3	42.3	42.3	66	31.8	1	4	112	0.00	29.914 
13:05	42.3	42.3	42.3	66	31.8	1	5	248	0.00	29.914 
13:10	42.3	42.3	42.3	67	32.1	1	3	22	0.00	29.914 
13:15	42.6	42.6	42.6	67	32.4	2	7	292	0.00	29.899 
13:20	42.9	42.9	42.9	67	32.7	1	4	338	0.00	29.899 
13:25	43.1	43.1	43.1	66	32.5	1	9	248	0.00	29.899 
13:30	43.1	43.1	43.1	66	32.5	2	7	248	0.00	29.896 
13:35	42.9	42.9	42.9	66	32.3	2	5	270	0.00	29.896 
13:40	42.8	42.8	42.8	67	32.6	1	3	248	0.00	29.896 
13:45	42.8	42.8	42.8	67	32.6	1	4	248	0.00	29.883 
13:50	42.6	42.6	42.6	68	32.8	2	5	248	0.00	29.883 
13:55	42.6	42.6	42.6	68	32.8	2	6	248	0.00	29.883 
14:00	42.6	42.6	42.6	69	33.2	1	5	202	0.00	29.879 
14:05	42.8	42.8	42.8	69	33.3	2	5	248	0.00	29.879 
14:10	42.8	42.8	42.8	69	33.3	1	6	248	0.00	29.879 
14:15	42.8	42.8	42.8	69	33.3	1	4	248	0.00	29.874 
14:20	42.9	42.9	42.9	70	33.8	1	5	248	0.00	29.874 
14:25	43.1	43.1	43.1	70	34.0	1	5	248	0.00	29.874 
14:30	43.1	43.1	43.1	70	34.0	1	5	68	0.00	29.868 
14:35	43.2	43.2	43.2	71	34.4	1	5	248	0.00	29.868 
14:40	43.2	43.2	43.2	71	34.4	1	7	225	0.00	29.868 
14:45	43.3	43.3	43.3	71	34.5	1	5	90	0.00	29.862 
14:50	43.3	43.3	43.3	71	34.5	1	5	248	0.00	29.862 
14:55	43.3	43.3	43.3	72	34.9	1	4	315	0.00	29.862 
15:00	43.5	43.5	43.5	72	35.1	1	7	45	0.00	29.852 
15:05	43.5	43.5	43.5	73	35.4	1	3	270	0.00	29.852 
15:10	43.5	43.5	43.5	73	35.4	1	4	45	0.00	29.852 
15:15	43.6	43.6	43.6	74	35.9	1	4	270	0.00	29.849 
15:20	43.8	43.8	43.8	74	36.1	1	5	248	0.00	29.849 
15:25	43.9	43.9	43.9	74	36.2	1	4	248	0.00	29.849 
15:30	43.9	43.9	43.9	74	36.2	2	9	248	0.00	29.849 
15:35	44.1	44.1	44.1	75	36.7	1	4	248	0.00	29.849 
15:40	44.1	44.1	44.1	75	36.7	2	6	270	0.00	29.849 
15:45	44.2	44.2	44.2	76	37.1	2	5	338	0.00	29.844 
15:50	44.2	44.2	44.2	76	37.1	1	5	248	0.00	29.844 
15:55	44.2	44.2	44.2	76	37.1	1	5	248	0.00	29.844 
16:00	44.2	44.2	44.2	77	37.5	2	5	270	0.00	29.835 
16:05	44.2	44.2	44.2	77	37.5	1	7	292	0.00	29.835 
16:10	44.2	44.2	44.2	78	37.8	1	6	248	0.00	29.835 
16:15	44.3	44.3	44.3	78	37.9	2	5	248	0.00	29.843 
16:20	44.3	44.3	44.3	79	38.2	1	6	248	0.00	29.843 
16:25	44.5	44.5	44.5	79	38.4	2	6	248	0.00	29.843 
16:30	44.5	44.5	44.5	80	38.7	2	10	248	0.00	29.840 
16:35	44.5	44.5	44.5	81	39.0	2	6	248	0.00	29.840 
16:40	44.5	44.5	44.5	81	39.0	1	6	270	0.00	29.840 
16:45	44.5	44.5	44.5	82	39.4	1	4	225	0.00	29.844 
16:50	44.6	44.6	44.6	82	39.4	1	10	248	0.00	29.844 
16:55	44.6	44.6	44.6	83	39.8	2	7	248	0.00	29.844 
17:00	44.6	44.6	44.6	84	40.1	1	6	45	0.00	29.845 
17:05	44.6	44.6	44.6	84	40.1	1	4	292	0.00	29.845 
17:10	44.5	44.5	44.5	84	40.0	1	3	248	0.00	29.845 
17:15	44.6	44.6	44.6	85	40.4	2	6	248	0.00	29.849 
17:20	44.6	44.6	44.6	85	40.4	1	5	248	0.00	29.849 
17:25	44.6	44.6	44.6	86	40.7	2	7	248	0.00	29.849 
17:30	44.6	44.6	44.6	86	40.7	1	5	225	0.00	29.849 
17:35	44.6	44.6	44.6	86	40.7	2	5	270	0.00	29.849 
17:40	44.6	44.6	44.6	87	41.0	1	4	248	0.00	29.849 
17:45	44.5	44.5	44.5	87	40.9	1	4	68	0.00	29.849 
17:50	44.5	44.5	44.5	88	41.2	1	5	292	0.00	29.849 
17:55	44.5	44.5	44.5	88	41.2	1	3	248	0.00	29.849 
18:00	44.5	44.5	44.5	88	41.2	1	3	292	0.00	29.848 
18:05	44.5	44.5	44.5	88	41.2	1	6	248	0.00	29.848 
18:10	44.5	44.5	44.5	88	41.2	1	4	68	0.00	29.848 
18:15	44.5	44.5	44.5	89	41.5	1	7	292	0.00	29.841 
18:20	44.5	44.5	44.5	89	41.5	1	6	112	0.00	29.841 
18:25	44.5	44.5	44.5	89	41.5	1	5	68	0.00	29.841 
18:30	44.5	44.5	44.5	89	41.5	1	3	248	0.00	29.835 
18:35	44.3	44.3	44.3	89	41.3	1	3	45	0.00	29.835 
18:40	44.2	44.2	44.2	90	41.5	1	3	90	0.00	29.835 
18:45	44.2	44.2	44.2	90	41.5	1	4	90	0.00	29.837 
18:50	44.2	44.2	44.2	90	41.5	1	3	68	0.00	29.837 
18:55	44.2	44.2	44.2	90	41.5	1	5	270	0.00	29.837 
19:00	44.2	44.2	44.2	90	41.5	0	3	270	0.00	29.837 
19:05	44.2	44.2	44.2	90	41.5	0	2	90	0.00	29.837 
19:10	44.2	44.2	44.2	91	41.7	1	7	292	0.00	29.837 
19:15	44.2	44.2	44.2	91	41.7	2	7	248	0.00	29.830 
19:20	44.3	44.3	44.3	91	41.8	1	5	270	0.00	29.830 
19:25	44.2	44.2	44.2	91	41.7	1	5	248	0.00	29.830 
19:30	44.2	44.2	44.2	91	41.7	1	3	270	0.00	29.832 
19:35	44.2	44.2	44.2	91	41.7	1	5	270	0.00	29.832 
19:40	44.2	44.2	44.2	91	41.7	1	4	270	0.00	29.832 
19:45	44.2	44.2	44.2	91	41.7	1	2	248	0.00	29.831 
19:50	44.2	44.2	44.2	91	41.7	1	2	0	0.00	29.831 
19:55	44.1	44.1	44.1	91	41.6	0	2	22	0.00	29.831 
20:00	44.1	44.1	44.1	92	41.9	1	3	315	0.00	29.829 
20:05	44.1	44.1	44.1	92	41.9	1	4	90	0.00	29.829 
20:10	44.1	44.1	44.1	92	41.9	0	2	90	0.00	29.829 
20:15	44.1	44.1	44.1	92	41.9	0	2	90	0.00	29.822 
20:20	43.9	43.9	43.9	92	41.7	0	2	90	0.00	29.822 
20:25	43.9	43.9	43.9	92	41.7	0	1	90	0.00	29.822 
20:30	43.9	43.9	43.9	92	41.7	0	1	90	0.00	29.822 
20:35	43.8	43.8	43.8	92	41.6	0	2	90	0.00	29.822 
20:40	43.8	43.8	43.8	92	41.6	0	1	90	0.00	29.822 
20:45	43.8	43.8	43.8	92	41.6	0	1	90	0.00	29.822 
20:50	43.8	43.8	43.8	92	41.6	1	3	90	0.00	29.822 
20:55	43.8	43.8	43.8	92	41.6	0	2	90	0.00	29.822 
21:00	43.8	43.8	43.8	92	41.6	0	2	90	0.00	29.819 
21:05	43.8	43.8	43.8	93	41.9	0	2	90	0.00	29.819 
21:10	43.9	43.9	43.9	93	42.0	1	4	90	0.00	29.819 
21:15	43.9	43.9	43.9	93	42.0	0	4	90	0.00	29.807 
21:20	43.9	43.9	43.9	93	42.0	0	1	90	0.00	29.807 
21:25	43.9	43.9	43.9	93	42.0	0	2	90	0.00	29.807 
21:30	43.9	43.9	43.9	93	42.0	0	1	90	0.00	29.806 
21:35	44.1	44.1	44.1	93	42.2	0	3	90	0.00	29.806 
21:40	44.1	44.1	44.1	93	42.2	0	1	90	0.00	29.806 
21:45	44.1	44.1	44.1	93	42.2	0	2	90	0.00	29.802 
21:50	44.2	44.2	44.2	93	42.3	0	1	90	0.00	29.802 
21:55	44.3	44.3	44.3	93	42.4	0	2	90	0.00	29.802 
22:00	44.5	44.5	44.5	93	42.6	0	2	90	0.00	29.796 
22:05	44.5	44.5	44.5	93	42.6	0	2	90	0.00	29.796 
22:10	44.8	44.8	44.8	94	43.2	0	3	90	0.00	29.796 
22:15	45.1	45.1	45.1	94	43.5	1	4	248	0.00	29.797 
22:20	45.2	45.2	45.2	94	43.6	0	3	248	0.00	29.797 
22:25	45.5	45.5	45.5	94	43.9	0	3	248	0.00	29.797 
22:30	45.7	45.7	45.7	94	44.1	1	3	248	0.00	29.786 
22:35	45.8	45.8	45.8	94	44.2	1	6	248	0.00	29.786 
22:40	46.1	46.1	46.1	94	44.5	1	4	270	0.00	29.786 
22:45	46.2	46.2	46.2	94	44.6	0	3	248	0.00	29.781 
22:50	46.2	46.2	46.2	94	44.6	1	3	248	0.00	29.781 
22:55	46.4	46.4	46.4	94	44.8	1	3	248	0.00	29.781 
23:00	46.5	46.5	46.5	94	44.9	0	2	248	0.00	29.779 
23:05	46.7	46.7	46.7	94	45.1	0	4	248	0.00	29.779 
23:10	46.8	46.8	46.8	94	45.2	1	4	248	0.00	29.779 
23:15	47.0	47.0	47.0	94	45.4	0	2	248	0.00	29.774 
23:20	47.0	47.0	47.0	94	45.4	1	3	248	0.00	29.774 
23:25	47.3	47.3	47.3	94	45.7	1	4	68	0.00	29.774 
23:30	47.4	47.4	47.4	94	45.8	1	3	68	0.00	29.772 
23:35	47.7	47.7	47.7	94	46.1	1	4	248	0.00	29.772 
23:40	47.9	47.9	47.9	94	46.3	1	5	270	0.00	29.772 
23:45	48.0	48.0	48.0	94	46.4	1	4	270	0.00	29.763 
23:50	48.2	48.2	48.2	94	46.6	1	4	225	0.00	29.763 
23:55	48.5	48.5	48.5	94	46.9	1	4	248	0.00	29.763 

CoCoRaHS
IN-AL-39
A2 Web Hosting
Creative Commons License
GoDaddy
search engine by freefind advanced

loaded 2018-11-14 00:43:50 • last modified 2010-11-18 10:43:29
Privacy PolicyDisclaimer
• wx.awcolley.com is powered by PmWiki v.2002016 •
• all content (unless otherwise noted) © 2018 A W Colley